Terminal Aerodrome Forecast
Issued by NWS Tampa Bay Area, FL

Home | Current Version | Previous Version | Text Only | Print | Product List | Glossary On
Versions: 1 2 3 4 5 6 7 8 9 10 11 12 13
000
FTUS42 KTBW 110538
TAFSRQ
TAF
KSRQ 110538Z 1106/1206 07010KT P6SM SCT040
     FM111500 10012KT P6SM SCT025 BKN050
     FM120200 09007KT P6SM BKN025=

USA.gov is the U.S. government's official web portal to all federal, state and local government web resources and services.